createdAt,value
2023-05-21T00:00:41.847Z,100.00
2023-05-21T00:03:14.308Z,100.00
2023-05-21T00:05:45.172Z,100.00
2023-05-21T00:08:14.452Z,100.00
2023-05-21T00:10:42.754Z,100.00
2023-05-21T00:13:10.843Z,100.00
2023-05-21T00:15:39.636Z,100.00
2023-05-21T00:18:07.751Z,100.00
2023-05-21T00:20:37.367Z,100.00
2023-05-21T00:23:05.811Z,100.00
2023-05-21T00:25:34.066Z,100.00
2023-05-21T00:28:02.805Z,100.00
2023-05-21T00:30:31.180Z,100.00
2023-05-21T00:33:02.924Z,100.00
2023-05-21T00:35:31.519Z,100.00
2023-05-21T00:37:59.850Z,100.00
2023-05-21T00:40:28.365Z,100.00
2023-05-21T00:42:57.474Z,100.00
2023-05-21T00:45:25.707Z,100.00
2023-05-21T00:47:54.846Z,100.00
2023-05-21T00:50:23.867Z,100.00
2023-05-21T00:52:52.101Z,100.00
2023-05-21T00:55:21.887Z,100.00
2023-05-21T00:57:50.138Z,100.00
2023-05-21T01:00:18.251Z,100.00
2023-05-21T01:02:47.021Z,100.00
2023-05-21T01:05:15.725Z,100.00
2023-05-21T01:07:43.857Z,100.00
2023-05-21T01:10:12.547Z,100.00
2023-05-21T01:12:44.058Z,100.00
2023-05-21T01:15:13.110Z,100.00
2023-05-21T01:17:42.280Z,100.00
2023-05-21T01:20:11.495Z,100.00
2023-05-21T01:22:55.296Z,100.00
2023-05-21T01:25:28.329Z,100.00
2023-05-21T01:27:56.452Z,100.00
2023-05-21T01:30:25.682Z,100.00
2023-05-21T01:33:15.812Z,100.00
2023-05-21T01:36:01.065Z,100.00
2023-05-21T01:38:44.034Z,100.00
2023-05-21T01:41:13.721Z,100.00
2023-05-21T01:43:46.741Z,100.00
2023-05-21T01:46:21.850Z,100.00
2023-05-21T01:48:53.030Z,100.00
2023-05-21T01:51:21.863Z,100.00
2023-05-21T01:53:50.415Z,100.00
2023-05-21T01:56:19.295Z,100.00
2023-05-21T01:58:50.134Z,100.00
2023-05-21T02:01:18.291Z,100.00
2023-05-21T02:03:47.349Z,100.00
2023-05-21T02:06:16.022Z,100.00
2023-05-21T02:08:45.648Z,100.00
2023-05-21T02:11:13.850Z,100.00
2023-05-21T02:13:42.837Z,100.00
2023-05-21T02:16:14.968Z,100.00
2023-05-21T02:18:44.357Z,100.00
2023-05-21T02:21:12.724Z,100.00
2023-05-21T02:23:42.099Z,100.00
2023-05-21T02:26:10.264Z,100.00
2023-05-21T02:28:38.898Z,100.00
2023-05-21T02:31:07.300Z,100.00
2023-05-21T02:33:35.395Z,100.00
2023-05-21T02:36:04.246Z,100.00
2023-05-21T02:38:32.921Z,100.00
2023-05-21T02:41:00.891Z,100.00
2023-05-21T02:43:29.032Z,100.00
2023-05-21T02:45:57.777Z,100.00
2023-05-21T02:48:27.603Z,100.00
2023-05-21T02:50:55.748Z,100.00
2023-05-21T02:53:24.200Z,100.00
2023-05-21T02:55:52.177Z,100.00
2023-05-21T02:58:21.692Z,100.00
2023-05-21T03:00:50.082Z,100.00
2023-05-21T03:03:18.144Z,100.00
2023-05-21T03:05:46.777Z,100.00
2023-05-21T03:08:15.116Z,100.00
2023-05-21T03:10:43.213Z,100.00
2023-05-21T03:13:12.912Z,100.00
2023-05-21T03:15:41.476Z,100.00
2023-05-21T03:18:12.116Z,100.00
2023-05-21T03:20:43.904Z,100.00
2023-05-21T03:23:16.268Z,100.00
2023-05-21T03:25:46.649Z,100.00
2023-05-21T03:28:15.994Z,100.00
2023-05-21T03:30:49.870Z,100.00
2023-05-21T03:33:53.992Z,100.00
2023-05-21T03:36:29.395Z,100.00
2023-05-21T03:38:58.400Z,100.00
2023-05-21T03:41:26.563Z,100.00
2023-05-21T03:44:01.576Z,100.00
2023-05-21T03:46:36.397Z,100.00
2023-05-21T03:49:11.259Z,100.00
2023-05-21T03:51:40.869Z,100.00
2023-05-21T03:54:11.876Z,100.00
2023-05-21T03:56:41.317Z,100.00
2023-05-21T03:59:10.341Z,100.00
2023-05-21T04:01:39.227Z,100.00
2023-05-21T04:04:10.137Z,100.00
2023-05-21T04:06:38.409Z,100.00
2023-05-21T04:09:06.476Z,100.00
2023-05-21T04:11:34.964Z,100.00
2023-05-21T04:14:03.028Z,100.00
2023-05-21T04:16:31.319Z,100.00
2023-05-21T04:18:59.831Z,100.00
2023-05-21T04:21:28.670Z,100.00
2023-05-21T04:23:57.659Z,100.00
2023-05-21T04:26:48.494Z,100.00
2023-05-21T04:29:18.211Z,100.00
2023-05-21T04:31:46.794Z,100.00
2023-05-21T04:34:19.177Z,100.00
2023-05-21T04:36:48.660Z,100.00
2023-05-21T04:39:17.244Z,100.00
2023-05-21T04:41:45.368Z,100.00
2023-05-21T04:44:15.325Z,100.00
2023-05-21T04:46:46.309Z,100.00
2023-05-21T04:49:15.869Z,100.00
2023-05-21T04:51:44.764Z,100.00
2023-05-21T04:54:13.095Z,100.00
2023-05-21T04:56:41.359Z,100.00
2023-05-21T04:59:09.506Z,100.00
2023-05-21T05:01:38.632Z,100.00
2023-05-21T05:04:07.233Z,100.00
2023-05-21T05:06:35.299Z,100.00
2023-05-21T05:09:04.676Z,100.00
2023-05-21T05:11:33.301Z,100.00
2023-05-21T05:14:01.324Z,100.00
2023-05-21T05:16:29.976Z,100.00
2023-05-21T05:18:58.702Z,100.00
2023-05-21T05:21:27.530Z,100.00
2023-05-21T05:23:56.021Z,100.00
2023-05-21T05:26:28.526Z,100.00
2023-05-21T05:28:57.683Z,100.00
2023-05-21T05:31:25.845Z,100.00
2023-05-21T05:33:55.492Z,100.00
2023-05-21T05:36:26.227Z,100.00
2023-05-21T05:38:54.352Z,100.00
2023-05-21T05:41:23.742Z,100.00
2023-05-21T05:43:52.164Z,100.00
2023-05-21T05:46:23.488Z,100.00
2023-05-21T05:48:55.879Z,100.00
2023-05-21T05:51:26.745Z,100.00
2023-05-21T05:53:56.228Z,100.00
2023-05-21T05:56:24.700Z,100.00
2023-05-21T05:58:53.527Z,100.00
2023-05-21T06:01:24.991Z,100.00
2023-05-21T06:03:54.622Z,100.00
2023-05-21T06:06:30.496Z,100.00
2023-05-21T06:09:01.215Z,100.00
2023-05-21T06:11:29.704Z,100.00
2023-05-21T06:14:01.522Z,100.00
2023-05-21T06:16:34.399Z,100.00
2023-05-21T06:19:04.156Z,100.00
2023-05-21T06:21:33.393Z,100.00
2023-05-21T06:24:05.007Z,100.00
2023-05-21T06:26:34.346Z,100.00
2023-05-21T06:29:06.268Z,100.00
2023-05-21T06:31:37.550Z,100.00
2023-05-21T06:34:07.186Z,100.00
2023-05-21T06:36:35.886Z,100.00
2023-05-21T06:39:06.101Z,100.00
2023-05-21T06:41:34.603Z,100.00
2023-05-21T06:44:06.259Z,100.00
2023-05-21T06:46:53.323Z,100.00
2023-05-21T06:49:22.079Z,100.00
2023-05-21T06:51:50.254Z,100.00
2023-05-21T06:54:20.042Z,100.00
2023-05-21T06:56:48.593Z,100.00
2023-05-21T06:59:17.533Z,100.00
2023-05-21T07:01:46.541Z,100.00
2023-05-21T07:04:15.558Z,100.00
2023-05-21T07:06:45.318Z,100.00
2023-05-21T07:09:13.523Z,100.00
2023-05-21T07:11:42.284Z,100.00
2023-05-21T07:14:11.395Z,100.00
2023-05-21T07:16:40.110Z,100.00
2023-05-21T07:19:09.297Z,100.00
2023-05-21T07:21:37.592Z,100.00
2023-05-21T07:24:08.645Z,100.00
2023-05-21T07:26:40.567Z,100.00
2023-05-21T07:29:09.093Z,100.00
2023-05-21T07:31:37.314Z,100.00
2023-05-21T07:34:05.894Z,100.00
2023-05-21T07:36:34.549Z,100.00
2023-05-21T07:39:04.417Z,100.00
2023-05-21T07:41:32.990Z,100.00
2023-05-21T07:44:03.820Z,98.07
2023-05-21T07:46:34.543Z,98.44
2023-05-21T07:49:02.731Z,95.92
2023-05-21T07:51:31.722Z,96.19
2023-05-21T07:53:59.932Z,96.48
2023-05-21T07:56:33.803Z,97.85
2023-05-21T07:59:02.499Z,97.95
2023-05-21T08:01:31.378Z,91.25
2023-05-21T08:04:02.426Z,91.60
2023-05-21T08:06:31.727Z,93.58
2023-05-21T08:09:04.256Z,94.16
2023-05-21T08:11:34.129Z,93.35
2023-05-21T08:14:02.916Z,94.80
2023-05-21T08:16:31.653Z,90.24
2023-05-21T08:19:00.030Z,90.24
2023-05-21T08:21:28.338Z,89.38
2023-05-21T08:23:57.587Z,86.90
2023-05-21T08:26:26.764Z,87.31
2023-05-21T08:28:54.972Z,86.35
2023-05-21T08:31:23.873Z,85.11
2023-05-21T08:33:54.022Z,86.17
2023-05-21T08:36:32.012Z,85.63
2023-05-21T08:39:06.957Z,84.73
2023-05-21T08:41:39.011Z,83.58
2023-05-21T08:44:12.494Z,82.97
2023-05-21T08:46:42.964Z,79.21
2023-05-21T08:49:16.773Z,79.86
2023-05-21T08:51:47.274Z,81.05
2023-05-21T08:54:16.266Z,80.33
2023-05-21T08:56:49.721Z,79.87
2023-05-21T08:59:21.188Z,78.50
2023-05-21T09:01:51.233Z,79.29
2023-05-21T09:04:26.412Z,82.13
2023-05-21T09:06:58.311Z,84.38
2023-05-21T09:10:08.380Z,79.74
2023-05-21T09:12:36.810Z,78.92
2023-05-21T09:15:06.574Z,78.72
2023-05-21T09:17:37.023Z,77.66
2023-05-21T09:20:29.193Z,76.61
2023-05-21T09:23:17.320Z,74.62
2023-05-21T09:25:49.662Z,75.08
2023-05-21T09:28:25.787Z,76.88
2023-05-21T09:30:55.036Z,75.18
2023-05-21T09:33:31.802Z,75.73
2023-05-21T09:36:00.435Z,76.71
2023-05-21T09:38:29.561Z,72.03
2023-05-21T09:40:58.899Z,74.60
2023-05-21T09:43:28.843Z,77.43
2023-05-21T09:46:01.299Z,75.26
2023-05-21T09:48:44.020Z,75.76
2023-05-21T09:51:18.869Z,74.76
2023-05-21T09:53:58.294Z,68.48
2023-05-21T09:56:32.660Z,68.25
2023-05-21T09:59:07.060Z,67.92
2023-05-21T10:01:36.211Z,67.28
2023-05-21T10:04:08.464Z,67.16
2023-05-21T10:06:55.074Z,69.95
2023-05-21T10:09:24.150Z,65.05
2023-05-21T10:11:55.018Z,67.79
2023-05-21T10:14:27.033Z,70.68
2023-05-21T10:16:56.150Z,70.47
2023-05-21T10:19:25.895Z,71.17
2023-05-21T10:21:57.536Z,70.02
2023-05-21T10:24:27.503Z,68.61
2023-05-21T10:26:56.107Z,70.66
2023-05-21T10:29:24.538Z,68.79
2023-05-21T10:31:53.886Z,66.00
2023-05-21T10:34:23.507Z,66.42
2023-05-21T10:36:52.907Z,66.58
2023-05-21T10:39:22.400Z,63.55
2023-05-21T10:43:04.327Z,62.93
2023-05-21T10:45:59.751Z,64.44
2023-05-21T10:49:08.950Z,62.93
2023-05-21T10:52:07.700Z,64.49
2023-05-21T10:55:26.864Z,62.78
2023-05-21T10:58:35.360Z,63.73
2023-05-21T11:01:03.954Z,61.29
2023-05-21T11:03:36.542Z,60.95
2023-05-21T11:06:07.018Z,58.39
2023-05-21T11:08:39.059Z,59.70
2023-05-21T11:11:07.769Z,59.18
2023-05-21T11:13:49.726Z,58.85
2023-05-21T11:16:21.559Z,58.19
2023-05-21T11:18:49.567Z,58.03
2023-05-21T11:21:21.454Z,60.62
2023-05-21T11:23:59.129Z,58.67
2023-05-21T11:26:47.891Z,58.87
2023-05-21T11:29:16.709Z,61.54
2023-05-21T11:32:01.405Z,59.49
2023-05-21T11:34:40.439Z,57.69
2023-05-21T11:37:18.455Z,56.84
2023-05-21T11:39:48.504Z,56.20
2023-05-21T11:42:39.221Z,58.83
2023-05-21T11:45:08.774Z,57.03
2023-05-21T11:47:37.357Z,55.48
2023-05-21T11:50:08.177Z,53.56
2023-05-21T11:52:36.732Z,55.84
2023-05-21T11:55:05.883Z,56.20
2023-05-21T11:57:35.260Z,56.94
2023-05-21T12:00:14.368Z,56.24
2023-05-21T12:02:57.437Z,54.57
2023-05-21T12:05:27.542Z,54.32
2023-05-21T12:07:56.868Z,54.15
2023-05-21T12:10:25.209Z,54.22
2023-05-21T12:12:56.397Z,56.07
2023-05-21T12:15:27.169Z,52.81
2023-05-21T12:17:57.252Z,54.20
2023-05-21T12:20:28.435Z,54.61
2023-05-21T12:22:59.288Z,51.58
2023-05-21T12:25:28.156Z,51.19
2023-05-21T12:27:58.894Z,51.91
2023-05-21T12:30:28.558Z,53.58
2023-05-21T12:32:59.672Z,54.08
2023-05-21T12:35:27.987Z,54.50
2023-05-21T12:37:56.945Z,54.80
2023-05-21T12:40:39.729Z,53.44
2023-05-21T12:43:08.793Z,54.41
2023-05-21T12:45:39.763Z,54.08
2023-05-21T12:48:08.945Z,54.88
2023-05-21T12:50:42.100Z,52.51
2023-05-21T12:53:13.431Z,52.37
2023-05-21T12:55:41.797Z,51.40
2023-05-21T12:58:14.628Z,54.86
2023-05-21T13:00:44.241Z,52.47
2023-05-21T13:03:14.612Z,52.37
2023-05-21T13:05:44.223Z,51.35
2023-05-21T13:08:15.024Z,52.18
2023-05-21T13:10:43.525Z,54.48
2023-05-21T13:13:11.935Z,54.67
2023-05-21T13:15:40.733Z,54.91
2023-05-21T13:18:09.316Z,53.80
2023-05-21T13:20:37.936Z,54.21
2023-05-21T13:23:07.687Z,54.45
2023-05-21T13:25:37.815Z,54.73
2023-05-21T13:28:07.423Z,54.91
2023-05-21T13:30:35.738Z,55.79
2023-05-21T13:33:04.446Z,55.37
2023-05-21T13:35:32.940Z,54.88
2023-05-21T13:38:01.328Z,52.74
2023-05-21T13:40:29.733Z,55.48
2023-05-21T13:42:58.100Z,54.62
2023-05-21T13:45:29.455Z,53.24
2023-05-21T13:47:58.901Z,53.39
2023-05-21T13:50:27.537Z,52.89
2023-05-21T13:52:55.814Z,51.87
2023-05-21T13:55:24.062Z,52.78
2023-05-21T13:57:52.332Z,54.48
2023-05-21T14:00:20.497Z,52.21
2023-05-21T14:02:50.252Z,53.73
2023-05-21T14:05:18.614Z,53.88
2023-05-21T14:07:48.452Z,51.00
2023-05-21T14:10:17.424Z,52.46
2023-05-21T14:12:46.714Z,51.89
2023-05-21T14:15:15.261Z,52.09
2023-05-21T14:17:43.798Z,49.99
2023-05-21T14:20:12.441Z,51.56
2023-05-21T14:22:40.502Z,53.38
2023-05-21T14:25:09.525Z,52.30
2023-05-21T14:27:38.317Z,52.87
2023-05-21T14:30:08.035Z,52.72
2023-05-21T14:32:37.625Z,52.46
2023-05-21T14:35:06.564Z,51.97
2023-05-21T14:37:34.813Z,52.79
2023-05-21T14:40:05.703Z,53.10
2023-05-21T14:42:35.907Z,51.90
2023-05-21T14:45:18.040Z,52.39
2023-05-21T14:47:48.134Z,52.62
2023-05-21T14:50:17.309Z,52.98
2023-05-21T14:52:45.582Z,52.49
2023-05-21T14:55:14.095Z,52.43
2023-05-21T14:57:42.300Z,51.73
2023-05-21T15:00:13.278Z,52.55
2023-05-21T15:02:42.849Z,53.14
2023-05-21T15:05:11.270Z,54.70
2023-05-21T15:07:40.006Z,52.97
2023-05-21T15:10:09.323Z,54.50
2023-05-21T15:12:38.984Z,54.56
2023-05-21T15:15:09.234Z,54.82
2023-05-21T15:17:37.940Z,54.63
2023-05-21T15:20:06.929Z,53.22
2023-05-21T15:22:35.402Z,53.54
2023-05-21T15:25:05.020Z,52.89
2023-05-21T15:27:34.286Z,54.69
2023-05-21T15:30:03.360Z,54.75
2023-05-21T15:32:32.238Z,53.91
2023-05-21T15:35:00.621Z,52.86
2023-05-21T15:37:32.406Z,53.03
2023-05-21T15:40:01.699Z,54.89
2023-05-21T15:42:32.018Z,54.35
2023-05-21T15:45:00.753Z,53.62
2023-05-21T15:47:29.189Z,54.62
2023-05-21T15:49:59.129Z,54.72
2023-05-21T15:52:28.317Z,55.15
2023-05-21T15:54:56.755Z,55.03
2023-05-21T15:57:25.286Z,54.61
2023-05-21T15:59:53.874Z,55.44
2023-05-21T16:02:22.270Z,55.13
2023-05-21T16:04:51.965Z,56.14
2023-05-21T16:07:20.356Z,55.46
2023-05-21T16:09:49.458Z,55.54
2023-05-21T16:12:18.173Z,56.31
2023-05-21T16:14:50.458Z,55.39
2023-05-21T16:17:19.948Z,54.49
2023-05-21T16:19:48.217Z,55.25
2023-05-21T16:22:17.388Z,55.69
2023-05-21T16:24:46.559Z,55.77
2023-05-21T16:27:16.196Z,55.28
2023-05-21T16:29:45.764Z,54.48
2023-05-21T16:32:14.809Z,54.98
2023-05-21T16:34:44.818Z,54.44
2023-05-21T16:37:13.684Z,55.33
2023-05-21T16:39:42.285Z,55.13
2023-05-21T16:42:11.256Z,54.57
2023-05-21T16:44:41.241Z,55.16
2023-05-21T16:47:09.491Z,55.49
2023-05-21T16:49:37.539Z,55.34
2023-05-21T16:52:06.504Z,54.75
2023-05-21T16:54:34.754Z,54.79
2023-05-21T16:57:02.878Z,54.59
2023-05-21T16:59:32.601Z,54.45
2023-05-21T17:02:01.070Z,53.34
2023-05-21T17:04:30.436Z,53.96
2023-05-21T17:06:59.089Z,53.34
2023-05-21T17:09:27.284Z,53.60
2023-05-21T17:12:02.185Z,54.36
2023-05-21T17:14:34.428Z,54.98
2023-05-21T17:17:03.822Z,53.81
2023-05-21T17:19:32.182Z,53.80
2023-05-21T17:22:00.543Z,53.96
2023-05-21T17:24:29.857Z,54.16
2023-05-21T17:26:58.425Z,53.68
2023-05-21T17:29:27.297Z,54.27
2023-05-21T17:31:55.985Z,54.30
2023-05-21T17:34:27.077Z,55.20
2023-05-21T17:36:58.258Z,55.26
2023-05-21T17:39:29.556Z,55.69
2023-05-21T17:41:58.407Z,56.56
2023-05-21T17:44:26.998Z,57.36
2023-05-21T17:46:58.174Z,57.72
2023-05-21T17:49:26.608Z,58.46
2023-05-21T17:51:55.450Z,59.21
2023-05-21T17:54:24.729Z,61.11
2023-05-21T17:56:53.429Z,62.32
2023-05-21T17:59:22.524Z,62.42
2023-05-21T18:01:51.149Z,63.32
2023-05-21T18:04:20.650Z,63.13
2023-05-21T18:06:49.783Z,64.94
2023-05-21T18:09:18.183Z,67.63
2023-05-21T18:11:46.475Z,70.54
2023-05-21T18:14:15.002Z,72.33
2023-05-21T18:16:43.405Z,75.42
2023-05-21T18:19:11.829Z,79.04
2023-05-21T18:21:40.577Z,82.56
2023-05-21T18:24:09.243Z,85.53
2023-05-21T18:26:37.677Z,87.07
2023-05-21T18:29:06.297Z,87.39
2023-05-21T18:31:34.498Z,90.49
2023-05-21T18:34:02.707Z,90.47
2023-05-21T18:36:38.579Z,92.80
2023-05-21T18:39:08.086Z,93.63
2023-05-21T18:41:37.573Z,95.40
2023-05-21T18:44:06.624Z,94.20
2023-05-21T18:46:35.331Z,95.69
2023-05-21T18:49:05.185Z,96.01
2023-05-21T18:51:33.716Z,96.03
2023-05-21T18:54:01.935Z,96.78
2023-05-21T18:56:30.311Z,98.05
2023-05-21T18:58:59.082Z,99.08
2023-05-21T19:01:27.339Z,99.79
2023-05-21T19:03:56.735Z,100.00
2023-05-21T19:06:26.625Z,100.00
2023-05-21T19:08:55.386Z,100.00
2023-05-21T19:11:24.899Z,100.00
2023-05-21T19:13:53.454Z,100.00
2023-05-21T19:16:22.362Z,100.00
2023-05-21T19:18:51.074Z,100.00
2023-05-21T19:21:19.893Z,100.00
2023-05-21T19:23:52.541Z,100.00
2023-05-21T19:26:23.053Z,100.00
2023-05-21T19:28:53.781Z,100.00
2023-05-21T19:31:23.719Z,100.00
2023-05-21T19:33:53.094Z,100.00
2023-05-21T19:36:22.301Z,100.00
2023-05-21T19:38:51.156Z,100.00
2023-05-21T19:41:20.125Z,100.00
2023-05-21T19:43:48.798Z,100.00
2023-05-21T19:46:20.298Z,100.00
2023-05-21T19:48:51.288Z,100.00
2023-05-21T19:51:20.066Z,100.00
2023-05-21T19:53:48.671Z,99.60
2023-05-21T19:56:17.219Z,97.93
2023-05-21T19:58:48.145Z,96.31
2023-05-21T20:01:18.109Z,95.58
2023-05-21T20:03:46.759Z,95.60
2023-05-21T20:06:21.020Z,94.24
2023-05-21T20:08:49.381Z,93.20
2023-05-21T20:11:17.742Z,92.52
2023-05-21T20:13:50.658Z,91.22
2023-05-21T20:16:20.353Z,91.62
2023-05-21T20:18:49.697Z,91.98
2023-05-21T20:21:19.222Z,92.40
2023-05-21T20:23:47.699Z,92.20
2023-05-21T20:26:17.449Z,91.83
2023-05-21T20:28:46.448Z,93.21
2023-05-21T20:31:15.339Z,93.47
2023-05-21T20:33:43.770Z,92.57
2023-05-21T20:36:13.632Z,92.68
2023-05-21T20:38:42.377Z,92.94
2023-05-21T20:41:10.997Z,93.20
2023-05-21T20:43:39.808Z,93.77
2023-05-21T20:46:08.263Z,94.48
2023-05-21T20:48:38.012Z,94.82
2023-05-21T20:51:07.062Z,96.27
2023-05-21T20:53:36.279Z,97.92
2023-05-21T20:56:08.397Z,100.00
2023-05-21T20:58:37.150Z,100.00
2023-05-21T21:01:07.808Z,100.00
2023-05-21T21:03:37.266Z,100.00
2023-05-21T21:06:06.558Z,100.00
2023-05-21T21:08:34.928Z,100.00
2023-05-21T21:11:03.254Z,100.00
2023-05-21T21:13:31.872Z,100.00
2023-05-21T21:16:00.220Z,100.00
2023-05-21T21:18:28.888Z,100.00
2023-05-21T21:20:57.126Z,100.00
2023-05-21T21:23:28.155Z,100.00
2023-05-21T21:25:57.459Z,100.00
2023-05-21T21:28:26.152Z,100.00
2023-05-21T21:30:55.218Z,100.00
2023-05-21T21:33:24.779Z,100.00
2023-05-21T21:35:54.208Z,100.00
2023-05-21T21:38:22.810Z,100.00
2023-05-21T21:40:51.696Z,100.00
2023-05-21T21:43:19.988Z,100.00
2023-05-21T21:45:48.199Z,100.00
2023-05-21T21:48:16.966Z,100.00
2023-05-21T21:50:45.380Z,100.00
2023-05-21T21:53:14.196Z,100.00
2023-05-21T21:55:42.546Z,100.00
2023-05-21T21:58:10.690Z,100.00
2023-05-21T22:00:40.053Z,100.00
2023-05-21T22:03:09.183Z,100.00
2023-05-21T22:05:38.831Z,100.00
2023-05-21T22:08:07.089Z,100.00
2023-05-21T22:10:38.304Z,100.00
2023-05-21T22:13:06.868Z,100.00
2023-05-21T22:15:35.691Z,100.00
2023-05-21T22:18:04.292Z,100.00
2023-05-21T22:20:35.252Z,100.00
2023-05-21T22:23:03.588Z,100.00
2023-05-21T22:25:31.659Z,100.00
2023-05-21T22:28:00.127Z,100.00
2023-05-21T22:30:28.610Z,100.00
2023-05-21T22:32:59.869Z,100.00
2023-05-21T22:35:27.923Z,100.00
2023-05-21T22:37:56.406Z,100.00
2023-05-21T22:40:24.968Z,100.00
2023-05-21T22:42:53.158Z,100.00
2023-05-21T22:45:22.096Z,100.00
2023-05-21T22:47:52.065Z,100.00
2023-05-21T22:50:20.592Z,100.00
2023-05-21T22:52:49.944Z,100.00
2023-05-21T22:55:18.159Z,100.00
2023-05-21T22:57:46.370Z,100.00
2023-05-21T23:00:14.897Z,100.00
2023-05-21T23:02:43.042Z,100.00
2023-05-21T23:05:11.261Z,100.00
2023-05-21T23:07:39.972Z,100.00
2023-05-21T23:10:09.093Z,100.00
2023-05-21T23:12:37.639Z,100.00
2023-05-21T23:15:07.652Z,100.00
2023-05-21T23:17:36.466Z,100.00
2023-05-21T23:20:06.282Z,100.00
2023-05-21T23:22:36.147Z,100.00
2023-05-21T23:25:05.374Z,100.00
2023-05-21T23:27:33.387Z,100.00
2023-05-21T23:30:01.868Z,100.00
2023-05-21T23:32:29.992Z,100.00
2023-05-21T23:34:58.413Z,100.00
2023-05-21T23:37:26.918Z,100.00
2023-05-21T23:39:55.039Z,100.00
2023-05-21T23:42:23.298Z,100.00
2023-05-21T23:44:51.608Z,100.00
2023-05-21T23:47:19.672Z,100.00
2023-05-21T23:49:47.932Z,100.00
2023-05-21T23:52:18.938Z,100.00
2023-05-21T23:54:47.235Z,100.00
2023-05-21T23:57:15.300Z,100.00
2023-05-21T23:59:43.920Z,100.00
